Time;durP1;ratioP1;P1;durP2;ratioP2;P2;SDS_P1;SDS_P2;PMS_P1;PMS_P2;Temp;Humidity;BMP_temperature;BMP_pressure;BME280_temperature;BME280_humidity;BME280_pressure;Samples;Min_cycle;Max_cycle;Signal;HPM_P1;HPM_P2
2023/01/02 00:02:43;;;;;;;23.97;13.23;;;10.60;99.90;;;;;;10259322;28;20532;-82
2023/01/02 00:07:45;;;;;;;25.77;12.27;;;10.60;99.90;;;;;;10290632;28;20265;-82
2023/01/02 00:12:48;;;;;;;25.63;13.27;;;10.60;99.90;;;;;;10291471;28;20256;-82
2023/01/02 00:17:50;;;;;;;24.10;13.30;;;10.60;99.90;;;;;;10272962;28;20237;-82
2023/01/02 00:22:53;;;;;;;22.77;13.00;;;10.60;99.90;;;;;;10292037;28;20316;-82
2023/01/02 00:27:55;;;;;;;21.53;12.47;;;10.50;99.90;;;;;;10274168;28;20261;-82
2023/01/02 00:32:58;;;;;;;19.10;10.93;;;10.60;99.90;;;;;;10276350;28;20260;-82
2023/01/02 00:38:01;;;;;;;19.43;9.23;;;10.70;99.90;;;;;;10331400;28;21028;-82
2023/01/02 00:43:03;;;;;;;18.40;11.43;;;10.80;99.90;;;;;;10296134;28;20272;-82
2023/01/02 00:48:06;;;;;;;21.30;11.43;;;10.80;99.90;;;;;;10316413;28;20265;-82
2023/01/02 00:53:10;;;;;;;18.73;9.43;;;10.70;99.90;;;;;;10295927;28;20291;-82
2023/01/02 00:58:13;;;;;;;15.20;9.00;;;10.60;99.90;;;;;;10330810;28;20229;-82
2023/01/02 01:03:15;;;;;;;18.70;10.80;;;10.70;99.90;;;;;;10312496;28;20686;-82
2023/01/02 01:08:18;;;;;;;15.33;8.17;;;10.60;99.90;;;;;;10328045;28;20260;-82
2023/01/02 01:13:20;;;;;;;16.13;10.70;;;10.70;99.90;;;;;;10314948;28;20198;-82
2023/01/02 01:18:23;;;;;;;17.37;10.73;;;10.90;99.90;;;;;;10289783;28;20296;-82
2023/01/02 01:23:25;;;;;;;18.03;8.90;;;10.70;99.90;;;;;;10289124;28;20764;-82
2023/01/02 01:28:28;;;;;;;12.00;8.03;;;10.70;99.90;;;;;;10305389;28;20291;-82
2023/01/02 01:33:31;;;;;;;19.20;10.77;;;11.10;99.90;;;;;;10320000;28;20726;-82
2023/01/02 01:38:34;;;;;;;21.50;12.07;;;11.20;99.90;;;;;;10328068;28;20303;-82
2023/01/02 01:43:54;;;;;;;15.73;9.67;;;10.80;99.90;;;;;;10300903;28;20241;-82
2023/01/02 01:49:04;;;;;;;23.70;9.90;;;11.10;99.90;;;;;;10271182;28;20292;-82
2023/01/02 01:54:12;;;;;;;13.37;8.73;;;11.30;99.90;;;;;;10270781;28;20225;-82
2023/01/02 01:59:15;;;;;;;14.20;9.10;;;11.60;99.90;;;;;;10270241;28;20284;-82
2023/01/02 02:04:20;;;;;;;16.17;10.20;;;11.90;99.90;;;;;;10286291;28;20796;-82
2023/01/02 02:09:36;;;;;;;20.50;13.17;;;11.80;99.90;;;;;;10286610;28;20339;-82
2023/01/02 02:14:39;;;;;;;12.00;7.33;;;12.00;99.90;;;;;;10287572;28;20233;-82
2023/01/02 02:20:15;;;;;;;19.77;12.40;;;12.10;99.90;;;;;;10323104;28;20299;-82
2023/01/02 02:25:27;;;;;;;24.80;15.03;;;11.80;99.90;;;;;;10229783;29;20234;-82
2023/01/02 02:30:35;;;;;;;32.10;14.67;;;11.60;99.90;;;;;;10268670;28;20728;-82
2023/01/02 02:35:47;;;;;;;27.97;16.60;;;11.30;99.90;;;;;;10286008;28;20315;-82
2023/01/02 02:41:18;;;;;;;42.80;24.77;;;11.20;99.90;;;;;;10268355;28;20708;-82
2023/01/02 02:46:36;;;;;;;31.63;17.53;;;11.30;99.90;;;;;;10286200;28;20260;-82
2023/01/02 02:52:21;;;;;;;23.67;14.10;;;11.10;99.90;;;;;;10304351;28;20289;-82
2023/01/02 02:57:24;;;;;;;23.20;13.53;;;11.40;99.90;;;;;;10285219;28;20304;-82
2023/01/02 03:02:27;;;;;;;24.07;12.60;;;11.20;99.90;;;;;;10284984;28;20295;-82
2023/01/02 03:07:43;;;;;;;17.93;11.10;;;11.20;99.90;;;;;;10274592;28;20265;-82
2023/01/02 03:12:49;;;;;;;21.30;13.53;;;11.10;99.90;;;;;;10284895;28;20771;-82
2023/01/02 03:17:56;;;;;;;24.70;13.40;;;11.00;99.90;;;;;;10292514;28;20249;-82
2023/01/02 03:23:04;;;;;;;18.60;12.00;;;10.90;99.90;;;;;;10297039;28;20679;-82
2023/01/02 03:28:10;;;;;;;20.90;9.97;;;10.90;99.90;;;;;;10299426;28;20256;-82
2023/01/02 03:33:23;;;;;;;16.23;10.87;;;11.00;99.90;;;;;;10332255;28;20651;-82
2023/01/02 03:39:11;;;;;;;14.40;9.03;;;11.00;99.90;;;;;;10318774;28;20260;-82
2023/01/02 03:44:16;;;;;;;17.50;10.43;;;11.00;99.90;;;;;;10302140;28;20271;-82
2023/01/02 03:49:27;;;;;;;23.83;12.80;;;11.30;99.90;;;;;;10330394;28;20264;-82
2023/01/02 03:54:30;;;;;;;22.43;12.93;;;11.20;99.90;;;;;;10307503;28;20225;-82
2023/01/02 03:59:33;;;;;;;13.83;9.83;;;11.10;99.90;;;;;;10292235;28;20265;-82
2023/01/02 04:04:52;;;;;;;23.43;13.20;;;11.20;99.90;;;;;;10309698;28;20242;-82
2023/01/02 04:09:57;;;;;;;16.03;10.03;;;11.10;99.90;;;;;;10329849;28;20644;-82
2023/01/02 04:15:04;;;;;;;17.40;10.70;;;11.10;99.90;;;;;;10313257;28;20244;-82
2023/01/02 04:20:17;;;;;;;11.10;7.13;;;11.20;99.90;;;;;;10313589;28;20320;-82
2023/01/02 04:25:24;;;;;;;18.70;11.13;;;11.80;99.90;;;;;;10304898;28;20281;-81
2023/01/02 04:30:30;;;;;;;22.23;12.53;;;11.70;99.90;;;;;;10274537;28;20324;-82
2023/01/02 04:35:33;;;;;;;20.07;10.47;;;11.30;99.90;;;;;;10269944;28;20260;-81
2023/01/02 04:40:37;;;;;;;18.13;9.63;;;11.20;99.90;;;;;;10273169;28;20946;-82
2023/01/02 04:45:39;;;;;;;15.83;9.57;;;11.20;99.90;;;;;;10281555;28;20229;-81
2023/01/02 04:50:43;;;;;;;23.13;12.53;;;11.20;99.90;;;;;;10300069;28;20248;-82
2023/01/02 04:55:45;;;;;;;15.00;9.20;;;11.20;99.90;;;;;;10289537;28;20292;-82
2023/01/02 05:00:48;;;;;;;26.07;12.47;;;11.20;99.90;;;;;;10278143;28;20300;-81
2023/01/02 05:05:59;;;;;;;18.10;9.10;;;11.30;99.90;;;;;;10288379;28;20264;-81
2023/01/02 05:11:16;;;;;;;16.60;10.73;;;11.30;99.90;;;;;;10287942;28;20260;-81
2023/01/02 05:16:19;;;;;;;17.33;10.73;;;11.20;99.90;;;;;;10298929;28;20283;-82
2023/01/02 05:26:43;;;;;;;19.47;11.60;;;10.50;99.90;;;;;;10327609;28;20240;-81
2023/01/02 05:31:47;;;;;;;16.27;10.50;;;10.40;99.90;;;;;;10287321;28;20584;-87
2023/01/02 05:36:50;;;;;;;18.40;10.60;;;9.90;99.90;;;;;;10265098;28;21044;-89
2023/01/02 05:41:52;;;;;;;16.60;11.73;;;10.70;99.90;;;;;;10281691;28;20268;-89
2023/01/02 05:46:55;;;;;;;23.30;13.50;;;10.80;99.90;;;;;;10277026;28;21054;-90
2023/01/02 05:51:58;;;;;;;19.40;11.33;;;10.50;99.90;;;;;;10247997;28;20249;-89
2023/01/02 05:57:01;;;;;;;22.10;13.00;;;10.30;99.90;;;;;;10270136;28;20238;-90
2023/01/02 06:02:04;;;;;;;17.67;11.57;;;10.30;99.90;;;;;;10264547;28;20697;-89
2023/01/02 06:07:10;;;;;;;19.30;12.90;;;10.30;99.90;;;;;;10248565;28;20301;-88
2023/01/02 06:12:13;;;;;;;20.30;12.43;;;10.10;99.90;;;;;;10271503;28;20250;-89
2023/01/02 06:17:16;;;;;;;18.97;12.00;;;10.00;99.90;;;;;;10264347;28;21039;-88
2023/01/02 06:22:19;;;;;;;22.93;12.53;;;9.90;99.90;;;;;;10255241;28;20367;-88
2023/01/02 06:27:22;;;;;;;24.67;13.80;;;9.90;99.90;;;;;;10285836;28;20230;-89
2023/01/02 06:32:24;;;;;;;26.77;16.77;;;9.90;99.90;;;;;;10248443;28;20265;-88
2023/01/02 06:37:27;;;;;;;21.77;15.90;;;9.90;99.90;;;;;;10269851;28;20237;-89
2023/01/02 06:42:30;;;;;;;26.00;15.77;;;9.80;99.90;;;;;;10275945;28;20230;-89
2023/01/02 06:47:37;;;;;;;20.20;13.90;;;9.70;99.90;;;;;;10250776;28;20275;-88
2023/01/02 06:52:39;;;;;;;23.37;15.80;;;9.20;99.90;;;;;;10257620;28;20753;-88
2023/01/02 06:57:42;;;;;;;23.13;14.77;;;9.20;99.90;;;;;;10246069;28;20229;-88
2023/01/02 07:02:45;;;;;;;32.83;18.70;;;9.00;99.90;;;;;;10253268;28;20237;-88
2023/01/02 07:07:48;;;;;;;38.73;19.83;;;9.00;99.90;;;;;;10285763;28;20225;-85
2023/01/02 07:12:50;;;;;;;20.33;11.37;;;9.10;99.90;;;;;;10291580;28;20237;-93
2023/01/02 07:17:53;;;;;;;37.13;15.33;;;9.60;99.90;;;;;;10270364;28;20237;-92
2023/01/02 07:22:56;;;;;;;29.47;13.43;;;9.90;99.90;;;;;;10271509;28;20202;-93
2023/01/02 07:27:58;;;;;;;24.30;13.67;;;10.00;99.90;;;;;;10288122;28;20303;-93
2023/01/02 07:33:01;;;;;;;24.07;13.20;;;10.20;99.90;;;;;;10283267;28;20269;-92
2023/01/02 07:38:03;;;;;;;24.10;11.47;;;10.50;99.90;;;;;;10270822;28;20209;-93
2023/01/02 07:43:06;;;;;;;19.73;10.73;;;10.60;99.90;;;;;;10269935;28;20249;-94
2023/01/02 07:48:08;;;;;;;19.90;11.10;;;10.90;99.90;;;;;;10248766;28;20312;-92
2023/01/02 07:53:11;;;;;;;15.30;10.13;;;10.90;99.90;;;;;;10251307;28;20300;-92
2023/01/02 07:58:14;;;;;;;17.47;11.17;;;10.70;99.90;;;;;;10252461;29;20297;-93
2023/01/02 08:03:16;;;;;;;16.70;9.80;;;10.60;99.90;;;;;;10291236;28;20306;-93
2023/01/02 08:08:19;;;;;;;17.70;9.87;;;10.70;99.90;;;;;;10294709;28;20292;-93
2023/01/02 08:13:21;;;;;;;15.30;10.40;;;10.90;99.90;;;;;;10255099;28;20234;-93
2023/01/02 08:18:24;;;;;;;27.50;13.83;;;10.90;99.90;;;;;;10235806;29;20288;-93
2023/01/02 08:23:26;;;;;;;18.53;12.70;;;11.10;99.90;;;;;;10236475;29;20261;-93
2023/01/02 08:28:29;;;;;;;15.40;10.13;;;11.40;99.90;;;;;;10303639;28;20265;-92
2023/01/02 08:33:32;;;;;;;25.97;12.53;;;11.40;99.90;;;;;;10332302;28;20307;-94
2023/01/02 08:38:35;;;;;;;17.10;10.23;;;11.50;99.90;;;;;;10311547;28;20236;-93
2023/01/02 08:43:38;;;;;;;18.37;10.60;;;11.70;99.90;;;;;;10331891;28;20240;-94
2023/01/02 08:48:41;;;;;;;19.40;12.33;;;11.70;99.90;;;;;;10301756;28;20253;-93
2023/01/02 08:53:44;;;;;;;17.00;10.13;;;11.80;99.90;;;;;;10291066;28;20234;-93
2023/01/02 08:59:07;;;;;;;17.73;10.40;;;12.00;99.90;;;;;;10290387;28;20292;-92
2023/01/02 09:04:09;;;;;;;15.73;10.63;;;11.90;99.90;;;;;;10330214;28;20297;-94
2023/01/02 09:09:15;;;;;;;15.87;11.10;;;11.90;99.90;;;;;;10312526;28;20256;-92
2023/01/02 09:14:20;;;;;;;20.50;10.37;;;12.00;99.90;;;;;;10329357;28;20629;-93
2023/01/02 09:19:24;;;;;;;18.70;9.10;;;11.90;99.90;;;;;;10325838;28;20245;-93
2023/01/02 09:24:27;;;;;;;16.27;10.47;;;11.90;99.90;;;;;;10312894;28;20240;-92
2023/01/02 09:29:29;;;;;;;19.00;10.20;;;12.00;99.90;;;;;;10329094;28;20803;-94
2023/01/02 09:34:32;;;;;;;14.23;9.50;;;;;;;;;;10310040;28;20258;-93
2023/01/02 09:39:36;;;;;;;18.10;8.90;;;12.80;99.90;;;;;;10263355;28;20687;-92
2023/01/02 09:44:55;;;;;;;18.27;10.17;;;12.60;99.90;;;;;;10328857;28;20656;-93
2023/01/02 09:50:09;;;;;;;18.50;11.83;;;12.70;99.90;;;;;;10285192;28;20742;-93
2023/01/02 09:55:29;;;;;;;22.20;12.40;;;13.00;99.90;;;;;;10277435;28;20197;-94
2023/01/02 10:00:34;;;;;;;17.90;12.20;;;13.10;99.90;;;;;;10269557;28;20265;-94
2023/01/02 10:05:58;;;;;;;17.97;9.67;;;13.10;99.90;;;;;;10262185;28;20703;-92
2023/01/02 10:11:12;;;;;;;19.20;10.00;;;13.30;99.90;;;;;;10232551;29;20309;-94
2023/01/02 10:16:25;;;;;;;14.27;8.60;;;13.40;99.90;;;;;;10289602;28;20225;-94
2023/01/02 10:21:34;;;;;;;15.70;9.43;;;13.50;99.90;;;;;;10276150;28;20231;-93
2023/01/02 10:26:40;;;;;;;19.73;11.30;;;13.50;99.90;;;;;;10268763;28;20240;-95
2023/01/02 10:31:54;;;;;;;14.60;9.80;;;13.70;99.90;;;;;;10294085;28;20265;-92
2023/01/02 10:36:57;;;;;;;14.67;8.70;;;13.90;99.90;;;;;;10276527;28;20909;-94
2023/01/02 10:42:11;;;;;;;17.87;9.90;;;14.10;99.90;;;;;;10252264;28;20692;-94
2023/01/02 10:47:26;;;;;;;17.13;9.40;;;14.20;99.90;;;;;;10252849;28;20687;-93
2023/01/02 10:52:51;;;;;;;10.53;7.40;;;14.10;99.90;;;;;;10269896;28;20253;-93
2023/01/02 10:58:14;;;;;;;14.53;8.67;;;14.20;99.90;;;;;;10256717;28;20202;-94
2023/01/02 11:03:21;;;;;;;11.57;7.63;;;14.40;99.90;;;;;;10273952;28;20305;-92
2023/01/02 11:08:33;;;;;;;11.03;7.30;;;;;;;;;;10277442;28;20628;-94
2023/01/02 11:13:55;;;;;;;10.40;6.63;;;14.70;99.90;;;;;;10266236;28;20552;-93
2023/01/02 11:19:01;;;;;;;13.33;8.93;;;;;;;;;;10273636;28;20233;-94
2023/01/02 11:24:18;;;;;;;10.17;7.03;;;;;;;;;;10263748;28;20596;-95
2023/01/02 11:29:23;;;;;;;12.17;7.30;;;15.00;99.90;;;;;;10267589;28;20246;-92
2023/01/02 11:34:37;;;;;;;14.13;7.53;;;14.70;99.90;;;;;;10286653;28;20794;-93
2023/01/02 11:39:41;;;;;;;15.37;8.20;;;14.80;99.90;;;;;;10287469;28;20206;-94
2023/01/02 11:45:12;;;;;;;12.47;7.13;;;14.10;99.90;;;;;;10298839;28;20202;-91
2023/01/02 11:50:24;;;;;;;9.17;5.53;;;13.50;99.90;;;;;;10302938;28;20319;-89
2023/01/02 11:55:49;;;;;;;15.37;8.07;;;13.80;99.90;;;;;;10291351;28;20237;-89
2023/01/02 12:00:59;;;;;;;10.10;6.20;;;14.00;99.90;;;;;;10290721;28;20244;-88
2023/01/02 12:06:17;;;;;;;12.20;7.47;;;14.20;99.90;;;;;;10274172;28;20233;-89
2023/01/02 12:11:43;;;;;;;17.10;6.47;;;14.10;99.90;;;;;;10286833;28;20252;-90
2023/01/02 12:17:01;;;;;;;26.03;7.93;;;14.30;99.90;;;;;;10282900;28;20277;-90
2023/01/02 12:22:13;;;;;;;11.87;7.10;;;14.70;99.90;;;;;;10285637;28;20706;-90
2023/01/02 12:27:25;;;;;;;15.00;7.27;;;14.80;99.90;;;;;;10291073;28;20260;-90
2023/01/02 12:32:40;;;;;;;15.53;6.43;;;14.70;99.70;;;;;;10280721;28;20299;-90
2023/01/02 12:37:42;;;;;;;15.67;6.73;;;14.60;99.90;;;;;;10272667;28;20657;-90
2023/01/02 12:42:50;;;;;;;11.70;7.00;;;14.80;99.90;;;;;;10290130;28;20751;-90
2023/01/02 12:47:55;;;;;;;19.47;7.00;;;14.90;99.90;;;;;;10290147;28;20309;-90
2023/01/02 12:53:16;;;;;;;13.07;6.90;;;15.00;99.90;;;;;;10271357;28;20322;-90
2023/01/02 12:58:45;;;;;;;18.63;6.47;;;15.30;99.90;;;;;;10307341;28;20241;-90
2023/01/02 13:04:09;;;;;;;11.23;6.30;;;15.40;99.90;;;;;;10272392;28;20234;-91
2023/01/02 13:09:23;;;;;;;14.37;7.90;;;15.10;99.90;;;;;;10287901;28;20292;-91
2023/01/02 13:14:35;;;;;;;17.03;7.27;;;15.30;99.90;;;;;;10314553;28;20293;-90
2023/01/02 13:19:56;;;;;;;12.40;6.37;;;15.10;99.90;;;;;;10289404;28;20268;-90
2023/01/02 13:24:59;;;;;;;11.67;6.40;;;14.80;99.90;;;;;;10313457;28;20234;-89
2023/01/02 13:30:02;;;;;;;12.43;6.17;;;15.00;99.90;;;;;;10328532;28;20644;-90
2023/01/02 13:35:09;;;;;;;14.83;8.13;;;15.30;99.90;;;;;;10308135;28;20248;-91
2023/01/02 13:40:26;;;;;;;12.87;8.00;;;15.10;99.20;;;;;;10306866;28;20230;-91
2023/01/02 13:45:50;;;;;;;13.07;6.03;;;15.00;99.90;;;;;;10288993;28;20417;-91
2023/01/02 13:51:02;;;;;;;13.57;7.20;;;14.70;99.90;;;;;;10286561;28;20253;-91
2023/01/02 13:56:24;;;;;;;16.27;7.03;;;14.40;99.90;;;;;;10287811;28;20231;-91
2023/01/02 14:01:52;;;;;;;16.13;8.33;;;14.40;99.90;;;;;;10288269;28;20233;-91
2023/01/02 14:07:14;;;;;;;19.27;9.20;;;14.20;99.90;;;;;;10267988;28;20245;-91
2023/01/02 14:12:17;;;;;;;17.07;9.97;;;13.80;99.90;;;;;;10265687;28;20792;-91
2023/01/02 14:17:27;;;;;;;18.50;11.70;;;13.60;99.90;;;;;;10309443;28;20689;-91
2023/01/02 14:22:31;;;;;;;24.10;10.67;;;13.30;99.90;;;;;;10327976;28;20249;-91
2023/01/02 14:27:35;;;;;;;11.73;7.73;;;13.20;99.90;;;;;;10315186;28;20260;-90
2023/01/02 14:32:43;;;;;;;19.30;9.03;;;13.50;99.90;;;;;;10296305;28;20708;-91
2023/01/02 14:37:52;;;;;;;13.27;7.27;;;13.70;99.90;;;;;;10298794;28;20731;-92
2023/01/02 14:43:31;;;;;;;15.60;8.00;;;13.90;99.90;;;;;;10268677;28;20237;-90
2023/01/02 14:48:45;;;;;;;20.17;8.90;;;13.80;99.90;;;;;;10286351;28;20983;-90
2023/01/02 14:54:21;;;;;;;9.40;6.27;;;13.60;99.90;;;;;;10289562;28;20325;-91
2023/01/02 14:59:29;;;;;;;13.97;8.60;;;13.50;99.90;;;;;;10297132;28;20608;-87
2023/01/02 15:04:38;;;;;;;13.37;7.93;;;13.80;99.90;;;;;;10294510;28;20619;-90
2023/01/02 15:09:46;;;;;;;22.23;10.47;;;13.40;99.90;;;;;;10301149;28;20233;-90
2023/01/02 15:14:48;;;;;;;17.20;11.63;;;13.10;99.90;;;;;;10334078;28;21050;-90
2023/01/02 15:19:52;;;;;;;15.17;7.57;;;12.80;99.90;;;;;;10305827;28;20641;-91
2023/01/02 15:24:55;;;;;;;15.67;8.97;;;13.10;99.90;;;;;;10263005;28;20696;-90
2023/01/02 15:30:17;;;;;;;14.20;8.93;;;13.90;99.90;;;;;;10288925;28;20260;-89
2023/01/02 15:35:28;;;;;;;16.70;9.03;;;13.60;99.90;;;;;;10298583;28;20233;-89
2023/01/02 15:40:34;;;;;;;19.93;11.27;;;13.50;99.90;;;;;;10301960;28;20233;-88
2023/01/02 15:45:48;;;;;;;15.03;10.03;;;13.40;99.90;;;;;;10268499;28;20234;-88
2023/01/02 15:50:53;;;;;;;15.63;10.57;;;13.20;99.90;;;;;;10269750;28;20316;-88
2023/01/02 15:55:56;;;;;;;21.70;12.47;;;13.00;99.90;;;;;;10275593;28;20226;-87
2023/01/02 16:01:22;;;;;;;21.47;11.30;;;12.80;99.90;;;;;;10274820;28;20642;-88
2023/01/02 16:06:32;;;;;;;20.77;11.40;;;12.90;99.90;;;;;;10301036;28;20371;-89
2023/01/02 16:11:44;;;;;;;23.40;13.60;;;12.80;99.90;;;;;;10293751;28;20323;-89
2023/01/02 16:16:52;;;;;;;26.50;14.83;;;12.80;99.90;;;;;;10290558;28;20264;-89
2023/01/02 16:22:07;;;;;;;22.53;13.67;;;12.80;99.90;;;;;;10284453;28;20230;-89
2023/01/02 16:27:59;;;;;;;23.53;13.13;;;12.90;99.90;;;;;;10260508;28;20295;-89
2023/01/02 16:33:04;;;;;;;26.07;14.20;;;13.10;99.90;;;;;;10292294;28;20317;-89
2023/01/02 16:38:24;;;;;;;22.80;11.30;;;13.20;99.90;;;;;;9941997;28;10000310;-90
2023/01/02 16:43:27;;;;;;;21.20;13.20;;;13.10;99.90;;;;;;10299396;28;20237;-88
2023/01/02 16:48:30;;;;;;;20.70;12.50;;;13.00;99.90;;;;;;10285360;28;20262;-88
2023/01/02 16:53:33;;;;;;;16.23;11.80;;;13.10;99.90;;;;;;10269816;28;20257;-88
2023/01/02 16:58:36;;;;;;;13.10;8.57;;;13.30;99.90;;;;;;10256678;28;20289;-89
2023/01/02 17:03:39;;;;;;;8.20;5.70;;;13.60;99.90;;;;;;10250936;28;20262;-89
2023/01/02 17:08:41;;;;;;;15.10;7.90;;;14.10;99.90;;;;;;10320745;28;20229;-89
2023/01/02 17:13:44;;;;;;;9.87;6.40;;;14.20;99.90;;;;;;10325728;28;20314;-89
2023/01/02 17:18:47;;;;;;;14.17;7.13;;;14.50;99.90;;;;;;10308297;28;20292;-89
2023/01/02 17:23:49;;;;;;;15.87;9.10;;;14.90;99.90;;;;;;10275178;28;20269;-88
2023/01/02 17:28:52;;;;;;;13.67;7.23;;;15.10;99.90;;;;;;10306590;28;20304;-89
2023/01/02 17:33:54;;;;;;;13.73;8.20;;;15.10;99.90;;;;;;10285869;28;20336;-89
2023/01/02 17:38:57;;;;;;;13.17;7.73;;;15.00;99.90;;;;;;9943630;28;10000193;-88
2023/01/02 17:44:00;;;;;;;11.57;6.80;;;15.40;99.90;;;;;;10228579;28;20236;-89
2023/01/02 17:49:05;;;;;;;9.43;7.03;;;15.90;99.90;;;;;;10297196;28;20245;-88
2023/01/02 17:54:08;;;;;;;18.10;8.93;;;15.60;99.90;;;;;;10287022;28;20714;-88
2023/01/02 17:59:12;;;;;;;11.10;7.10;;;15.80;99.90;;;;;;10274439;28;20248;-89
2023/01/02 18:04:15;;;;;;;13.00;7.03;;;16.00;99.90;;;;;;10265751;28;20239;-88
2023/01/02 18:09:18;;;;;;;8.07;6.20;;;16.10;99.90;;;;;;10256772;28;20229;-88
2023/01/02 18:14:27;;;;;;;8.20;5.73;;;16.00;99.90;;;;;;10283791;28;20255;-88
2023/01/02 18:19:36;;;;;;;9.80;6.60;;;16.00;99.90;;;;;;10265815;28;20235;-89
2023/01/02 18:24:40;;;;;;;7.23;5.40;;;16.50;99.90;;;;;;10289695;28;20308;-89
2023/01/02 18:29:45;;;;;;;7.23;5.33;;;16.50;99.90;;;;;;10295558;28;20253;-88
2023/01/02 18:34:49;;;;;;;9.70;6.33;;;16.80;99.90;;;;;;10255954;28;20337;-88
2023/01/02 18:40:00;;;;;;;8.43;6.23;;;16.70;99.90;;;;;;10245074;28;20283;-88
2023/01/02 18:45:13;;;;;;;11.13;6.17;;;16.80;99.90;;;;;;10281028;28;20245;-88
2023/01/02 18:50:26;;;;;;;12.70;6.63;;;16.90;99.90;;;;;;10300759;28;20244;-88
2023/01/02 18:55:29;;;;;;;7.00;4.73;;;17.00;99.90;;;;;;10281680;28;20232;-89
2023/01/02 19:00:41;;;;;;;6.77;4.73;;;;;;;;;;10309253;28;20242;-92
2023/01/02 19:05:44;;;;;;;9.03;6.50;;;17.10;99.90;;;;;;10288876;28;20237;-90
2023/01/02 19:10:50;;;;;;;9.57;7.47;;;17.10;99.90;;;;;;10305955;28;20260;-93
2023/01/02 19:16:04;;;;;;;11.13;5.83;;;16.90;99.90;;;;;;10271951;28;20244;-92
2023/01/02 19:21:08;;;;;;;11.27;6.87;;;16.90;99.90;;;;;;10298833;28;20251;-89
2023/01/02 19:26:20;;;;;;;9.03;5.77;;;16.70;99.90;;;;;;10307514;28;20243;-90
2023/01/02 19:31:25;;;;;;;9.60;6.27;;;17.10;99.90;;;;;;10269956;28;20859;-90
2023/01/02 19:36:36;;;;;;;9.73;5.60;;;17.10;99.90;;;;;;10300144;28;20299;-90
2023/01/02 19:47:00;;;;;;;8.50;5.73;;;17.30;99.90;;;;;;10263545;28;20691;-90
2023/01/02 19:52:03;;;;;;;8.57;5.87;;;17.10;99.90;;;;;;10282074;28;20255;-91
2023/01/02 19:57:08;;;;;;;7.20;5.40;;;17.20;99.90;;;;;;10286617;28;20699;-88
2023/01/02 20:02:12;;;;;;;6.13;5.13;;;17.10;99.90;;;;;;10280511;28;20684;-90
2023/01/02 20:07:16;;;;;;;6.37;4.77;;;17.20;99.90;;;;;;10271003;28;20240;-90
2023/01/02 20:12:28;;;;;;;8.90;5.20;;;17.40;99.90;;;;;;10289780;28;20631;-92
2023/01/02 20:17:32;;;;;;;6.70;4.50;;;17.60;99.90;;;;;;10300949;28;20223;-92
2023/01/02 20:22:35;;;;;;;11.07;5.07;;;17.00;99.90;;;;;;10291945;28;20253;-92
2023/01/02 20:27:38;;;;;;;9.90;4.70;;;17.40;99.90;;;;;;10304276;28;20244;-91
2023/01/02 20:32:41;;;;;;;8.70;5.57;;;17.30;99.90;;;;;;10302602;28;20264;-91
2023/01/02 20:37:44;;;;;;;10.17;5.17;;;17.40;99.90;;;;;;10301898;28;20240;-91
2023/01/02 20:42:47;;;;;;;5.47;4.27;;;17.30;99.90;;;;;;10291798;28;20202;-92
2023/01/02 20:47:49;;;;;;;7.23;4.97;;;17.30;99.90;;;;;;10273930;28;20201;-90
2023/01/02 20:52:52;;;;;;;5.70;4.40;;;17.10;99.90;;;;;;10257199;28;20264;-91
2023/01/02 20:57:58;;;;;;;8.20;5.73;;;17.20;99.90;;;;;;10290573;28;20244;-89
2023/01/02 21:03:01;;;;;;;7.57;5.03;;;;;;;;;;10290653;28;20240;-89
2023/01/02 21:08:05;;;;;;;7.40;5.77;;;17.30;99.90;;;;;;10286295;28;20232;-91
2023/01/02 21:13:11;;;;;;;9.23;5.53;;;17.20;99.90;;;;;;10314254;28;20281;-90
2023/01/02 21:18:20;;;;;;;8.27;5.07;;;17.20;99.90;;;;;;10300544;28;20271;-91
2023/01/02 21:23:25;;;;;;;7.87;5.07;;;17.00;99.90;;;;;;10301574;28;20322;-90
2023/01/02 21:28:27;;;;;;;7.87;4.67;;;17.30;99.90;;;;;;10329892;28;20290;-90
2023/01/02 21:33:30;;;;;;;7.63;5.17;;;17.20;99.90;;;;;;10305235;28;20299;-90
2023/01/02 21:38:36;;;;;;;6.60;5.10;;;17.00;99.90;;;;;;10279588;28;20956;-90
2023/01/02 21:43:38;;;;;;;7.23;4.83;;;16.70;99.90;;;;;;10250619;28;20229;-90
2023/01/02 21:48:41;;;;;;;6.37;4.67;;;16.70;99.90;;;;;;10244547;28;20295;-90
2023/01/02 21:53:56;;;;;;;8.30;4.83;;;16.90;99.90;;;;;;10263925;28;20649;-91
2023/01/02 21:58:58;;;;;;;6.13;4.60;;;17.20;99.90;;;;;;10258392;28;20229;-91
2023/01/02 22:04:01;;;;;;;7.40;4.67;;;17.10;99.90;;;;;;10280166;28;20238;-91
2023/01/02 22:09:04;;;;;;;9.80;4.53;;;17.10;99.90;;;;;;10269327;28;20262;-90
2023/01/02 22:14:06;;;;;;;5.13;4.63;;;16.90;99.90;;;;;;10252487;28;20715;-91
2023/01/02 22:19:11;;;;;;;5.83;4.17;;;16.50;99.90;;;;;;10270182;28;20651;-90
2023/01/02 22:24:15;;;;;;;5.80;3.50;;;16.60;99.90;;;;;;10264731;28;20229;-90
2023/01/02 22:29:19;;;;;;;5.53;4.23;;;17.00;99.90;;;;;;10249816;28;20229;-90
2023/01/02 22:34:23;;;;;;;6.80;3.27;;;17.00;99.90;;;;;;10264657;28;20266;-91
2023/01/02 22:39:27;;;;;;;4.60;3.87;;;17.10;99.90;;;;;;10269643;28;20299;-91
2023/01/02 22:44:30;;;;;;;5.17;3.40;;;16.70;99.90;;;;;;10265798;28;20233;-90
2023/01/02 22:49:37;;;;;;;4.83;3.87;;;16.60;99.90;;;;;;10251342;28;20713;-90
2023/01/02 22:54:39;;;;;;;4.70;3.67;;;16.50;99.90;;;;;;10263915;28;20259;-90
2023/01/02 22:59:42;;;;;;;4.47;3.00;;;16.80;99.90;;;;;;10248517;28;20273;-89
2023/01/02 23:04:45;;;;;;;4.67;2.77;;;16.20;99.90;;;;;;10251963;28;20237;-90
2023/01/02 23:09:48;;;;;;;5.53;3.50;;;16.60;99.90;;;;;;10269270;28;20244;-90
2023/01/02 23:14:51;;;;;;;5.30;3.20;;;16.40;99.90;;;;;;10276320;28;20671;-90
2023/01/02 23:19:53;;;;;;;4.00;3.00;;;16.50;99.90;;;;;;10286188;28;20237;-89
2023/01/02 23:24:56;;;;;;;3.77;2.90;;;15.90;99.90;;;;;;10304123;28;20236;-90
2023/01/02 23:29:58;;;;;;;2.77;2.30;;;16.10;99.90;;;;;;10334720;28;20243;-91
2023/01/02 23:35:01;;;;;;;2.80;2.20;;;15.80;99.90;;;;;;10333831;28;20248;-90
2023/01/02 23:40:05;;;;;;;3.70;2.47;;;15.60;99.90;;;;;;10334329;28;20236;-88
2023/01/02 23:45:08;;;;;;;2.33;2.07;;;15.70;99.90;;;;;;10309293;28;20741;-91
2023/01/02 23:50:10;;;;;;;3.93;3.27;;;16.10;99.90;;;;;;10288712;28;20710;-89
2023/01/02 23:55:13;;;;;;;2.57;2.00;;;16.00;99.90;;;;;;10334008;28;20253;-90
